Yangon, Burma
Current Conditions -  °F | °C
As of 12:00 AM on Tuesday 21 Oct 2014 (Local Time) from VYYY Reporting Station
Few Clouds Few Clouds  
Wind Chill: 79°   Ceiling: Unl
Heat Index: 83°   Visibility: 4mi
Dew Point: 77°   Wind: 3mph
Humidity: 94%   Direction: 40°NE
Pressure: 29.88"   Gusts: NA
Location:  16.79°N, 96.15°E
Report Text: VYYY 201800Z 04003KT 6000 FEW020 26/25 Q1012 NOSIG
Loading
Personal Weather Stations






























Interactive Weather Map New forecast layout! Learn more

10-Day Weather Forecast

Advertisements
Track Severe Weather on mobile